Time;durP1;ratioP1;P1;durP2;ratioP2;P2;SDS_P1;SDS_P2;PMS_P1;PMS_P2;Temp;Humidity;BMP_temperature;BMP_pressure;BME280_temperature;BME280_humidity;BME280_pressure;Samples;Min_cycle;Max_cycle;Signal;HPM_P1;HPM_P2
2021/04/03 00:00:42;;;;;;;8.50;4.37;;;9.00;70.90;;;;;;5073960;28;20446;-71
2021/04/03 00:03:11;;;;;;;9.20;4.87;;;9.00;70.50;;;;;;5073486;28;20448;-71
2021/04/03 00:05:38;;;;;;;10.40;4.77;;;9.00;70.70;;;;;;5073441;28;20464;-72
2021/04/03 00:08:05;;;;;;;12.47;5.13;;;9.00;70.90;;;;;;5073459;28;20460;-71
2021/04/03 00:10:34;;;;;;;9.40;5.57;;;9.00;70.90;;;;;;5073409;28;20439;-71
2021/04/03 00:13:01;;;;;;;15.90;5.57;;;9.00;70.50;;;;;;5073300;28;20477;-71
2021/04/03 00:15:28;;;;;;;10.27;4.67;;;9.10;70.40;;;;;;5073421;28;20474;-71
2021/04/03 00:17:54;;;;;;;11.27;4.57;;;9.10;69.90;;;;;;5072964;28;20490;-72
2021/04/03 00:20:27;;;;;;;12.73;5.30;;;9.10;69.40;;;;;;5072926;28;20956;-72
2021/04/03 00:22:53;;;;;;;14.40;5.40;;;9.10;69.40;;;;;;5073283;28;20431;-71
2021/04/03 00:25:20;;;;;;;12.33;4.80;;;9.00;69.40;;;;;;5073190;28;20539;-71
2021/04/03 00:27:46;;;;;;;14.57;4.77;;;9.10;69.80;;;;;;5073088;28;20498;-71
2021/04/03 00:30:15;;;;;;;14.37;5.07;;;9.00;69.60;;;;;;5073076;28;20447;-71
2021/04/03 00:32:43;;;;;;;14.07;4.90;;;9.10;69.50;;;;;;5073052;28;20479;-71
2021/04/03 00:35:10;;;;;;;13.77;4.17;;;9.10;69.30;;;;;;5073414;28;20471;-71
2021/04/03 00:37:37;;;;;;;17.80;4.60;;;9.10;68.70;;;;;;5072690;28;20889;-71
2021/04/03 00:40:08;;;;;;;13.90;4.70;;;9.10;68.70;;;;;;5074927;28;20448;-71
2021/04/03 00:42:34;;;;;;;11.03;3.87;;;9.00;68.70;;;;;;5076725;28;20428;-71
2021/04/03 00:45:00;;;;;;;14.13;4.13;;;9.00;68.90;;;;;;5076570;28;20464;-71
2021/04/03 00:47:26;;;;;;;13.60;4.80;;;9.00;68.30;;;;;;5076607;28;20444;-71
2021/04/03 00:49:52;;;;;;;14.23;4.80;;;9.00;68.00;;;;;;5076227;28;20965;-71
2021/04/03 00:52:19;;;;;;;13.50;4.10;;;9.00;68.40;;;;;;5076416;28;20479;-71
2021/04/03 00:54:46;;;;;;;13.93;4.23;;;8.90;68.60;;;;;;5076346;28;20828;-71
2021/04/03 00:57:12;;;;;;;12.27;4.83;;;8.90;67.80;;;;;;5076047;28;21082;-71
2021/04/03 00:59:38;;;;;;;12.23;3.90;;;8.90;67.60;;;;;;5076402;28;20448;-71
2021/04/03 01:02:05;;;;;;;16.77;4.50;;;8.90;67.20;;;;;;5076319;28;20441;-71
2021/04/03 01:04:33;;;;;;;13.93;4.70;;;8.90;66.90;;;;;;5076151;28;20464;-71
2021/04/03 01:06:59;;;;;;;14.57;4.33;;;8.90;67.20;;;;;;5076087;28;20464;-71
2021/04/03 01:09:26;;;;;;;12.07;4.40;;;8.80;67.20;;;;;;5075955;28;20895;-71
2021/04/03 01:12:01;;;;;;;14.03;5.27;;;8.80;67.50;;;;;;5076091;28;20479;-71
2021/04/03 01:14:35;;;;;;;14.23;4.50;;;8.70;67.70;;;;;;5076167;28;20424;-71
2021/04/03 01:17:09;;;;;;;13.60;4.23;;;8.80;67.10;;;;;;5076202;28;20424;-71
2021/04/03 01:20:14;;;;;;;14.73;3.70;;;8.90;67.00;;;;;;5076139;28;20466;-71
2021/04/03 01:23:01;;;;;;;17.37;5.10;;;8.90;67.20;;;;;;5013989;28;20439;-71
2021/04/03 01:25:37;;;;;;;13.03;4.80;;;8.90;67.00;;;;;;5013936;28;20799;-71
2021/04/03 01:28:26;;;;;;;19.50;4.07;;;8.90;67.10;;;;;;5056601;28;20938;-71
2021/04/03 01:30:54;;;;;;;15.70;4.00;;;9.00;67.40;;;;;;5075944;28;20425;-71
2021/04/03 01:33:23;;;;;;;11.60;4.07;;;9.00;65.70;;;;;;5075798;28;20477;-71
2021/04/03 01:35:55;;;;;;;14.00;3.30;;;8.90;65.30;;;;;;5075440;28;21009;-71
2021/04/03 01:38:28;;;;;;;11.33;3.80;;;8.80;65.00;;;;;;5075805;28;20463;-71
2021/04/03 01:40:56;;;;;;;16.97;4.37;;;8.70;66.10;;;;;;5075749;28;20426;-71
2021/04/03 01:43:26;;;;;;;9.93;3.80;;;8.60;65.80;;;;;;5075698;28;20444;-71
2021/04/03 01:45:55;;;;;;;12.77;4.10;;;8.60;66.40;;;;;;5075576;28;20461;-71
2021/04/03 01:48:23;;;;;;;17.57;4.13;;;8.50;65.40;;;;;;5075629;28;20437;-71
2021/04/03 01:50:50;;;;;;;13.30;4.13;;;8.50;65.70;;;;;;5075221;28;20992;-71
2021/04/03 01:53:18;;;;;;;13.20;3.60;;;8.50;66.00;;;;;;5075398;28;20476;-71
2021/04/03 01:55:46;;;;;;;14.57;4.07;;;8.50;65.70;;;;;;5075387;28;20476;-71
2021/04/03 01:58:12;;;;;;;14.23;3.70;;;8.60;65.70;;;;;;5075420;28;20461;-71
2021/04/03 02:00:40;;;;;;;11.03;3.80;;;8.60;66.10;;;;;;5075436;28;20440;-71
2021/04/03 02:03:07;;;;;;;16.57;3.97;;;8.70;66.40;;;;;;5075326;28;20436;-71
2021/04/03 02:05:35;;;;;;;15.77;5.37;;;8.70;66.80;;;;;;5074874;28;20839;-71
2021/04/03 02:08:02;;;;;;;19.20;4.77;;;8.80;67.50;;;;;;5074923;28;20465;-71
2021/04/03 02:10:33;;;;;;;14.27;3.73;;;8.80;67.30;;;;;;5075203;28;20445;-71
2021/04/03 02:13:01;;;;;;;13.53;4.80;;;8.70;66.90;;;;;;5075079;28;20466;-71
2021/04/03 02:15:28;;;;;;;10.43;3.33;;;8.60;66.40;;;;;;5075051;28;20462;-71
2021/04/03 02:17:56;;;;;;;16.27;3.77;;;8.60;67.30;;;;;;5074691;28;20450;-71
2021/04/03 02:20:25;;;;;;;10.37;3.00;;;8.60;66.50;;;;;;5074969;28;20520;-71
2021/04/03 02:22:52;;;;;;;14.70;3.53;;;8.70;65.80;;;;;;5074914;28;20436;-71
2021/04/03 02:25:18;;;;;;;12.37;3.63;;;8.80;65.10;;;;;;5074807;28;20468;-71
2021/04/03 02:27:46;;;;;;;15.37;3.03;;;8.80;64.80;;;;;;5074545;28;20948;-71
2021/04/03 02:30:16;;;;;;;17.77;3.40;;;8.80;63.90;;;;;;5074785;28;20498;-71
2021/04/03 02:32:44;;;;;;;11.80;2.60;;;8.80;63.40;;;;;;5074642;28;20525;-71
2021/04/03 02:35:11;;;;;;;12.83;2.87;;;8.80;62.10;;;;;;5074621;28;20466;-71
2021/04/03 02:37:39;;;;;;;9.87;3.70;;;8.80;62.90;;;;;;5074642;28;20447;-71
2021/04/03 02:40:09;;;;;;;13.50;3.90;;;8.80;63.20;;;;;;5074578;28;20442;-71
2021/04/03 02:42:40;;;;;;;15.20;3.30;;;8.80;63.70;;;;;;5074531;28;20437;-71
2021/04/03 02:45:09;;;;;;;14.83;3.53;;;8.80;63.00;;;;;;5074110;28;20977;-71
2021/04/03 02:47:41;;;;;;;8.73;3.33;;;8.70;62.70;;;;;;5074385;28;20447;-71
2021/04/03 02:50:13;;;;;;;8.50;2.73;;;8.70;62.80;;;;;;5074380;28;20467;-71
2021/04/03 02:52:41;;;;;;;9.10;2.90;;;8.70;63.10;;;;;;5074293;28;20460;-71
2021/04/03 02:55:09;;;;;;;12.70;3.30;;;8.70;63.40;;;;;;5074181;28;20460;-71
2021/04/03 02:57:39;;;;;;;15.83;4.13;;;8.70;63.50;;;;;;5074255;28;20455;-71
2021/04/03 03:00:07;;;;;;;14.97;3.90;;;8.80;63.70;;;;;;5074189;28;20450;-71
2021/04/03 03:02:34;;;;;;;16.80;2.80;;;8.80;63.20;;;;;;5073372;28;20854;-71
2021/04/03 03:05:04;;;;;;;7.77;2.60;;;8.70;62.80;;;;;;5074048;28;20468;-71
2021/04/03 03:07:33;;;;;;;14.23;2.97;;;8.70;63.20;;;;;;5073639;28;20457;-71
2021/04/03 03:10:01;;;;;;;15.10;2.87;;;8.70;63.10;;;;;;5073999;28;20444;-71
2021/04/03 03:12:29;;;;;;;11.80;2.50;;;8.70;62.50;;;;;;5073545;28;21010;-71
2021/04/03 03:14:59;;;;;;;9.00;3.13;;;8.70;61.90;;;;;;5073523;28;20982;-71
2021/04/03 03:17:26;;;;;;;11.03;2.40;;;8.80;61.60;;;;;;5073581;28;20961;-71
2021/04/03 03:19:53;;;;;;;19.43;3.50;;;8.80;60.30;;;;;;5073839;28;20642;-71
2021/04/03 03:22:20;;;;;;;8.30;2.30;;;8.90;60.40;;;;;;5073802;28;20448;-71
2021/04/03 03:24:46;;;;;;;8.43;2.27;;;8.90;60.60;;;;;;5073730;28;20457;-71
2021/04/03 03:27:14;;;;;;;16.97;2.93;;;8.80;61.10;;;;;;5073760;28;20641;-71
2021/04/03 03:29:42;;;;;;;17.60;3.33;;;8.80;61.30;;;;;;5073749;28;20452;-71
2021/04/03 03:32:08;;;;;;;11.00;2.50;;;8.80;61.60;;;;;;5073658;28;20575;-71
2021/04/03 03:34:35;;;;;;;9.73;2.60;;;8.80;62.10;;;;;;5073599;28;20469;-71
2021/04/03 03:37:01;;;;;;;10.97;3.43;;;8.80;62.00;;;;;;5073621;28;20451;-71
2021/04/03 03:39:28;;;;;;;13.70;3.57;;;8.80;61.90;;;;;;5073589;28;20440;-71
2021/04/03 03:41:56;;;;;;;8.87;2.00;;;8.90;61.70;;;;;;5073551;28;20433;-71
2021/04/03 03:44:25;;;;;;;9.30;2.87;;;8.90;62.00;;;;;;5073463;28;20490;-71
2021/04/03 03:46:51;;;;;;;12.27;3.40;;;8.90;62.00;;;;;;5073559;28;20467;-71
2021/04/03 03:49:17;;;;;;;8.70;3.10;;;8.90;62.00;;;;;;5073466;28;20459;-71
2021/04/03 03:51:43;;;;;;;12.83;4.43;;;9.00;61.90;;;;;;5073400;28;20480;-71
2021/04/03 03:54:10;;;;;;;11.30;2.93;;;8.90;61.60;;;;;;5073166;28;20938;-71
2021/04/03 03:56:36;;;;;;;15.20;2.67;;;8.90;61.70;;;;;;5073495;28;20453;-71
2021/04/03 03:59:03;;;;;;;10.00;3.10;;;8.90;62.10;;;;;;5073426;28;20448;-71
2021/04/03 04:01:30;;;;;;;15.10;3.53;;;8.80;62.40;;;;;;5073389;28;20444;-71
2021/04/03 04:03:56;;;;;;;17.63;3.47;;;8.70;62.60;;;;;;5073342;28;20437;-71
2021/04/03 04:06:22;;;;;;;13.07;3.67;;;8.70;63.60;;;;;;5073270;28;20465;-71
2021/04/03 04:08:48;;;;;;;7.43;2.30;;;8.70;63.80;;;;;;5072972;28;20452;-71
2021/04/03 04:11:15;;;;;;;9.90;2.93;;;8.70;63.70;;;;;;5072895;28;20823;-71
2021/04/03 04:13:41;;;;;;;11.67;4.13;;;8.70;63.70;;;;;;5073256;28;20444;-71
2021/04/03 04:16:07;;;;;;;7.80;2.67;;;8.70;63.80;;;;;;5077105;28;20829;-71
2021/04/03 04:18:34;;;;;;;11.67;2.97;;;8.80;64.10;;;;;;5076988;28;20942;-71
2021/04/03 04:21:00;;;;;;;10.50;2.50;;;8.80;64.10;;;;;;5077297;28;20459;-71
2021/04/03 04:23:26;;;;;;;18.10;2.60;;;8.80;64.10;;;;;;5076931;28;20424;-71
2021/04/03 04:25:53;;;;;;;12.20;2.77;;;8.90;63.90;;;;;;5077148;28;20460;-71
2021/04/03 04:28:19;;;;;;;12.37;3.20;;;8.90;63.70;;;;;;5077124;28;20444;-71
2021/04/03 04:30:45;;;;;;;6.77;2.60;;;8.90;63.50;;;;;;5077057;28;20444;-71
2021/04/03 04:33:11;;;;;;;14.80;3.40;;;8.90;63.10;;;;;;5076633;28;21019;-71
2021/04/03 04:35:38;;;;;;;9.20;3.17;;;8.90;63.70;;;;;;5076932;28;20471;-71
2021/04/03 04:38:05;;;;;;;8.07;3.10;;;8.90;63.40;;;;;;5076955;28;20433;-71
2021/04/03 04:40:31;;;;;;;9.47;2.67;;;8.90;63.80;;;;;;5076859;28;20477;-71
2021/04/03 04:42:58;;;;;;;14.67;2.97;;;8.80;63.50;;;;;;5076783;28;20847;-71
2021/04/03 04:45:24;;;;;;;14.03;2.80;;;8.80;63.90;;;;;;5076971;28;20464;-71
2021/04/03 04:47:50;;;;;;;12.93;2.93;;;8.90;63.90;;;;;;5076380;28;20441;-71
2021/04/03 04:50:16;;;;;;;15.60;3.97;;;8.90;63.90;;;;;;5076783;28;20433;-71
2021/04/03 04:52:44;;;;;;;13.27;3.33;;;8.90;63.90;;;;;;5076306;28;20483;-71
2021/04/03 04:55:11;;;;;;;7.70;3.00;;;9.00;64.10;;;;;;5076204;28;20824;-71
2021/04/03 04:57:37;;;;;;;12.57;3.30;;;8.90;63.40;;;;;;5076572;28;20448;-71
2021/04/03 05:00:04;;;;;;;15.23;3.50;;;9.00;63.80;;;;;;5076499;28;20451;-71
2021/04/03 05:02:30;;;;;;;13.67;3.90;;;9.00;63.70;;;;;;5076147;28;20941;-71
2021/04/03 05:04:57;;;;;;;16.83;3.30;;;9.00;63.70;;;;;;5076386;28;20464;-71
2021/04/03 05:07:23;;;;;;;15.03;2.80;;;9.10;63.80;;;;;;5075736;28;20467;-71
2021/04/03 05:09:50;;;;;;;10.13;2.63;;;9.10;63.60;;;;;;5075135;28;20444;-71
2021/04/03 05:12:16;;;;;;;14.90;2.87;;;9.10;63.60;;;;;;5075053;28;20480;-71
2021/04/03 05:14:42;;;;;;;15.73;3.50;;;9.10;63.60;;;;;;5075030;28;20464;-71
2021/04/03 05:17:08;;;;;;;13.87;2.60;;;9.20;63.70;;;;;;5074991;28;20467;-71
2021/04/03 05:19:35;;;;;;;8.67;2.90;;;9.20;63.50;;;;;;5075031;28;20444;-71
2021/04/03 05:22:01;;;;;;;11.57;2.73;;;9.20;63.40;;;;;;5075090;28;20573;-71
2021/04/03 05:24:27;;;;;;;10.67;2.80;;;9.30;63.50;;;;;;5074674;28;20822;-71
2021/04/03 05:26:54;;;;;;;10.87;2.77;;;9.30;63.40;;;;;;5074447;28;20494;-71
2021/04/03 05:29:20;;;;;;;16.93;3.80;;;9.30;63.00;;;;;;5075244;28;20448;-71
2021/04/03 05:31:47;;;;;;;12.23;3.03;;;9.30;63.20;;;;;;5074445;28;20464;-71
2021/04/03 05:34:13;;;;;;;11.73;2.70;;;9.30;63.40;;;;;;5074677;28;20891;-71
2021/04/03 05:36:39;;;;;;;10.33;3.40;;;9.30;63.50;;;;;;5074741;28;20445;-71
2021/04/03 05:39:05;;;;;;;16.43;4.20;;;9.40;63.50;;;;;;5074350;28;20795;-71
2021/04/03 05:41:32;;;;;;;23.07;4.27;;;9.40;63.30;;;;;;5074654;28;20444;-71
2021/04/03 05:44:02;;;;;;;15.70;3.70;;;9.40;63.10;;;;;;5074628;28;20844;-71
2021/04/03 05:46:29;;;;;;;10.20;3.10;;;9.40;63.10;;;;;;5075290;28;20475;-71
2021/04/03 05:48:55;;;;;;;11.37;2.90;;;9.40;63.40;;;;;;5074299;28;20445;-71
2021/04/03 05:51:22;;;;;;;19.70;4.50;;;9.30;63.00;;;;;;5074247;28;20862;-71
2021/04/03 05:53:49;;;;;;;11.27;3.33;;;9.30;63.30;;;;;;5074493;28;20492;-71
2021/04/03 05:56:17;;;;;;;13.83;2.70;;;9.30;64.00;;;;;;5074374;28;20466;-71
2021/04/03 05:58:45;;;;;;;15.00;3.50;;;9.30;64.20;;;;;;5074089;28;20906;-71
2021/04/03 06:01:12;;;;;;;8.50;3.10;;;9.30;64.40;;;;;;5074390;28;20457;-71
2021/04/03 06:03:38;;;;;;;17.77;3.63;;;9.40;64.20;;;;;;5074284;28;20464;-71
2021/04/03 06:06:05;;;;;;;9.17;3.10;;;9.40;63.80;;;;;;5074731;28;20464;-71
2021/04/03 06:08:32;;;;;;;14.40;3.50;;;9.40;63.90;;;;;;5055912;28;542472;-71
2021/04/03 06:11:17;;;;;;;11.03;3.67;;;9.30;63.90;;;;;;5075232;28;20440;-71
2021/04/03 06:14:02;;;;;;;16.33;3.83;;;9.30;63.60;;;;;;5075091;28;20521;-71
2021/04/03 06:16:31;;;;;;;11.00;3.00;;;9.20;63.60;;;;;;5075498;28;20480;-71
2021/04/03 06:19:11;;;;;;;16.97;4.00;;;9.20;63.50;;;;;;5074978;28;20436;-71
2021/04/03 06:21:37;;;;;;;14.47;3.23;;;9.20;63.70;;;;;;5074779;28;20497;-71
2021/04/03 06:24:14;;;;;;;8.40;2.60;;;9.10;64.20;;;;;;5074544;28;20931;-71
2021/04/03 06:26:40;;;;;;;14.57;3.63;;;9.10;64.80;;;;;;5074802;28;20436;-71
2021/04/03 06:29:22;;;;;;;18.20;5.63;;;9.20;65.20;;;;;;5074837;28;20518;-71
2021/04/03 06:31:52;;;;;;;19.53;3.83;;;9.30;65.20;;;;;;5074748;28;20503;-71
2021/04/03 06:34:33;;;;;;;12.53;3.20;;;9.30;65.10;;;;;;5075249;28;20432;-71
2021/04/03 06:37:01;;;;;;;12.10;3.70;;;9.40;64.70;;;;;;5073907;28;20429;-71
2021/04/03 06:39:28;;;;;;;13.83;3.57;;;9.50;64.70;;;;;;5074632;28;20438;-71
2021/04/03 06:41:55;;;;;;;14.20;5.53;;;9.60;64.90;;;;;;5074520;28;20470;-71
2021/04/03 06:44:22;;;;;;;10.37;3.27;;;9.60;64.90;;;;;;5074109;28;20941;-71
2021/04/03 06:46:50;;;;;;;17.77;4.50;;;9.70;64.60;;;;;;5074422;28;20499;-72
2021/04/03 06:49:16;;;;;;;19.70;5.33;;;9.70;64.10;;;;;;5074333;28;20455;-71
2021/04/03 06:51:43;;;;;;;20.07;3.63;;;9.80;64.30;;;;;;5074242;28;20459;-71
2021/04/03 06:54:11;;;;;;;16.00;3.23;;;9.80;64.00;;;;;;5074003;28;20818;-71
2021/04/03 06:56:38;;;;;;;16.03;4.00;;;9.80;63.80;;;;;;5074438;28;20475;-71
2021/04/03 06:59:06;;;;;;;18.23;3.47;;;9.90;63.50;;;;;;5073917;28;20428;-71
2021/04/03 07:01:57;;;;;;;11.53;3.60;;;10.00;62.00;;;;;;5074181;28;20482;-72
2021/04/03 07:04:28;;;;;;;14.77;4.20;;;9.90;63.00;;;;;;5059033;28;20490;-71
2021/04/03 07:06:55;;;;;;;22.03;4.77;;;9.90;62.70;;;;;;5073914;28;20477;-71
2021/04/03 07:09:22;;;;;;;15.80;4.50;;;9.90;62.90;;;;;;5074087;28;20421;-71
2021/04/03 07:11:50;;;;;;;23.13;6.73;;;9.90;62.90;;;;;;5073929;28;20531;-71
2021/04/03 07:14:18;;;;;;;21.80;5.20;;;9.90;62.70;;;;;;5073854;28;20440;-71
2021/04/03 07:16:45;;;;;;;20.67;6.23;;;9.90;62.60;;;;;;5073937;28;20429;-71
2021/04/03 07:19:13;;;;;;;24.83;5.60;;;10.00;61.30;;;;;;5073867;28;20450;-71
2021/04/03 07:21:41;;;;;;;21.40;4.80;;;10.00;61.10;;;;;;5073855;28;20794;-71
2021/04/03 07:24:09;;;;;;;19.93;4.63;;;10.10;61.30;;;;;;5073783;28;20448;-71
2021/04/03 07:26:37;;;;;;;14.70;4.30;;;10.10;61.40;;;;;;5073690;28;20475;-71
2021/04/03 07:29:03;;;;;;;21.80;5.80;;;10.20;61.50;;;;;;5073699;28;20454;-71
2021/04/03 07:31:46;;;;;;;12.60;5.03;;;10.30;61.20;;;;;;5073660;28;20444;-71
2021/04/03 07:34:13;;;;;;;17.10;6.27;;;10.30;60.60;;;;;;5073664;28;20530;-71
2021/04/03 07:36:42;;;;;;;28.63;7.00;;;10.40;59.90;;;;;;5073635;28;20809;-72
2021/04/03 07:39:25;;;;;;;26.13;5.87;;;10.50;60.40;;;;;;5073627;28;20429;-71
2021/04/03 07:41:51;;;;;;;21.20;6.43;;;10.70;60.70;;;;;;5073533;28;20451;-72
2021/04/03 07:44:18;;;;;;;29.73;5.80;;;10.80;58.60;;;;;;5073494;28;20432;-71
2021/04/03 07:46:47;;;;;;;18.73;6.90;;;10.90;58.20;;;;;;5073536;28;20470;-71
2021/04/03 07:49:31;;;;;;;20.03;7.27;;;11.00;58.20;;;;;;5073474;28;20428;-71
2021/04/03 07:51:58;;;;;;;17.43;6.63;;;11.20;57.70;;;;;;5073389;28;20461;-73
2021/04/03 07:54:32;;;;;;;32.20;7.70;;;11.30;57.10;;;;;;5073442;28;20429;-72
2021/04/03 07:57:03;;;;;;;101.07;15.37;;;11.30;56.90;;;;;;5073439;28;20428;-73
2021/04/03 07:59:51;;;;;;;46.77;7.90;;;11.40;56.70;;;;;;5073135;28;20432;-73
2021/04/03 08:02:19;;;;;;;25.83;6.23;;;11.50;56.30;;;;;;5073427;28;20486;-73
2021/04/03 08:04:47;;;;;;;20.03;5.57;;;11.50;55.70;;;;;;5073290;28;20493;-73
2021/04/03 08:07:14;;;;;;;26.00;5.40;;;11.60;55.40;;;;;;5073157;28;20484;-74
2021/04/03 08:09:40;;;;;;;40.73;6.30;;;11.60;55.70;;;;;;5073364;28;21099;-73
2021/04/03 08:12:07;;;;;;;34.07;5.60;;;11.50;55.60;;;;;;5073198;28;20480;-73
2021/04/03 08:14:35;;;;;;;15.93;5.37;;;11.60;55.30;;;;;;5072898;28;22730;-72
2021/04/03 08:17:04;;;;;;;18.83;4.73;;;11.70;55.00;;;;;;5072960;28;21016;-72
2021/04/03 08:19:33;;;;;;;19.77;4.87;;;11.60;54.90;;;;;;5073146;28;20474;-73
2021/04/03 08:22:01;;;;;;;20.00;4.70;;;11.70;55.00;;;;;;5073141;28;20468;-73
2021/04/03 08:24:27;;;;;;;18.67;5.60;;;11.80;54.70;;;;;;5073138;28;20433;-72
2021/04/03 08:26:54;;;;;;;16.30;5.90;;;11.90;54.10;;;;;;5072908;28;20452;-73
2021/04/03 08:29:25;;;;;;;13.97;5.47;;;12.00;53.50;;;;;;5073058;28;20524;-73
2021/04/03 08:31:53;;;;;;;21.73;6.40;;;12.00;53.60;;;;;;5073042;28;20420;-73
2021/04/03 08:34:20;;;;;;;29.33;7.87;;;12.00;53.90;;;;;;5072614;28;20861;-73
2021/04/03 08:36:47;;;;;;;24.57;8.67;;;12.10;53.80;;;;;;5072932;28;20433;-73
2021/04/03 08:39:15;;;;;;;17.77;9.60;;;12.30;53.10;;;;;;5073005;28;20449;-72
2021/04/03 08:41:43;;;;;;;27.23;14.30;;;12.30;53.00;;;;;;5072928;28;20445;-72
2021/04/03 08:44:18;;;;;;;26.80;18.10;;;12.40;53.00;;;;;;5072904;28;20448;-71
2021/04/03 08:46:46;;;;;;;28.37;18.80;;;12.60;51.90;;;;;;5072938;28;20455;-73
2021/04/03 08:49:20;;;;;;;27.87;20.83;;;12.80;51.20;;;;;;5072882;28;20486;-72
2021/04/03 08:51:47;;;;;;;27.43;20.60;;;12.90;50.80;;;;;;5072844;28;20487;-73
2021/04/03 08:54:14;;;;;;;21.97;16.60;;;13.10;49.60;;;;;;5072895;28;20578;-72
2021/04/03 08:56:40;;;;;;;24.73;16.90;;;13.20;49.40;;;;;;5072581;28;20911;-72
2021/04/03 08:59:08;;;;;;;30.10;16.80;;;13.20;49.00;;;;;;5072837;28;20445;-72
2021/04/03 09:01:36;;;;;;;25.83;14.70;;;13.20;49.10;;;;;;5075524;28;20429;-72
2021/04/03 09:04:07;;;;;;;26.07;15.10;;;13.30;48.60;;;;;;5076476;28;20440;-72
2021/04/03 09:06:41;;;;;;;25.40;11.10;;;13.40;49.40;;;;;;5076493;28;20475;-71
2021/04/03 09:09:09;;;;;;;22.73;11.40;;;13.60;48.60;;;;;;5076575;28;20801;-72
2021/04/03 09:11:37;;;;;;;16.63;6.10;;;13.80;48.30;;;;;;5075989;28;20427;-73
2021/04/03 09:14:03;;;;;;;18.70;5.70;;;14.00;49.60;;;;;;5076147;28;20491;-71
2021/04/03 09:16:35;;;;;;;16.57;4.63;;;14.00;47.60;;;;;;5076672;28;21036;-71
2021/04/03 09:19:02;;;;;;;15.13;5.20;;;13.70;47.40;;;;;;5076182;28;20421;-71
2021/04/03 09:21:29;;;;;;;16.73;5.23;;;13.50;49.20;;;;;;5076158;28;20440;-71
2021/04/03 09:23:55;;;;;;;16.50;4.90;;;13.60;49.90;;;;;;5076087;28;20425;-71
2021/04/03 09:26:32;;;;;;;11.00;4.23;;;13.70;49.10;;;;;;5075874;28;20464;-73
2021/04/03 09:29:08;;;;;;;11.97;5.67;;;13.80;48.30;;;;;;5076065;28;20456;-72
2021/04/03 09:31:40;;;;;;;34.73;6.00;;;14.00;47.90;;;;;;5075950;28;20429;-72
2021/04/03 09:34:07;;;;;;;18.23;5.73;;;14.10;47.80;;;;;;5075776;28;20523;-72
2021/04/03 09:36:43;;;;;;;11.70;5.33;;;14.30;47.90;;;;;;5075559;28;20962;-73
2021/04/03 09:39:16;;;;;;;19.97;6.97;;;14.60;47.30;;;;;;5075821;28;20449;-71
2021/04/03 09:41:47;;;;;;;18.77;5.93;;;14.80;47.20;;;;;;5075652;28;20425;-70
2021/04/03 09:44:15;;;;;;;14.80;6.77;;;14.90;47.30;;;;;;5075614;28;20444;-70
2021/04/03 09:46:42;;;;;;;18.53;6.80;;;15.10;47.50;;;;;;5075597;28;20456;-71
2021/04/03 09:49:09;;;;;;;21.03;6.70;;;15.30;47.00;;;;;;5075309;28;20451;-71
2021/04/03 09:51:36;;;;;;;97.17;12.37;;;15.30;47.20;;;;;;5075269;28;20445;-71
2021/04/03 09:54:03;;;;;;;33.63;8.40;;;15.50;47.10;;;;;;5075417;28;20533;-71
2021/04/03 09:56:29;;;;;;;13.13;8.07;;;15.60;45.80;;;;;;5075385;28;20476;-71
2021/04/03 09:58:57;;;;;;;18.97;8.50;;;15.60;45.60;;;;;;5075393;28;20467;-70
2021/04/03 10:01:24;;;;;;;21.90;9.33;;;15.60;46.10;;;;;;5075388;28;20441;-71
2021/04/03 10:03:52;;;;;;;17.60;9.07;;;15.70;46.60;;;;;;5075357;28;20440;-70
2021/04/03 10:06:18;;;;;;;18.67;9.00;;;16.00;46.00;;;;;;5075210;28;20522;-71
2021/04/03 10:08:44;;;;;;;19.17;8.40;;;16.30;45.10;;;;;;5074865;28;20456;-71
2021/04/03 10:11:10;;;;;;;15.90;8.60;;;16.50;44.20;;;;;;5074698;28;20807;-71
2021/04/03 10:13:37;;;;;;;23.30;8.77;;;16.80;43.40;;;;;;5074184;28;20476;-71
2021/04/03 10:16:04;;;;;;;30.47;9.47;;;17.20;43.00;;;;;;5074944;28;20464;-71
2021/04/03 10:18:31;;;;;;;18.83;8.20;;;17.50;42.70;;;;;;5075004;28;20497;-71
2021/04/03 10:20:57;;;;;;;16.97;7.60;;;17.80;42.10;;;;;;5074911;28;20444;-70
2021/04/03 10:23:23;;;;;;;20.80;9.97;;;18.20;41.20;;;;;;5074522;28;20625;-71
2021/04/03 10:25:50;;;;;;;17.37;9.50;;;18.40;40.10;;;;;;5074750;28;20468;-71
2021/04/03 10:28:16;;;;;;;21.10;9.43;;;18.90;39.50;;;;;;5074511;28;20979;-71
2021/04/03 10:30:42;;;;;;;20.23;8.80;;;19.20;39.00;;;;;;5074700;28;20444;-70
2021/04/03 10:33:09;;;;;;;52.77;10.83;;;19.60;38.70;;;;;;5074238;28;20476;-70
2021/04/03 10:35:36;;;;;;;32.37;10.70;;;20.10;37.80;;;;;;5074580;28;20535;-70
2021/04/03 10:38:02;;;;;;;18.37;9.00;;;20.50;37.00;;;;;;5074617;28;20452;-71
2021/04/03 10:40:28;;;;;;;17.60;8.33;;;20.80;35.90;;;;;;5074582;28;20440;-71
2021/04/03 10:42:55;;;;;;;14.87;8.20;;;21.20;34.60;;;;;;5074583;28;20440;-70
2021/04/03 10:45:21;;;;;;;18.30;8.53;;;21.40;34.30;;;;;;5074432;28;20468;-71
2021/04/03 10:47:47;;;;;;;14.77;9.90;;;21.70;34.10;;;;;;5074421;28;20444;-71
2021/04/03 10:50:14;;;;;;;17.20;10.10;;;21.90;34.10;;;;;;5074343;28;20444;-70
2021/04/03 10:52:41;;;;;;;17.70;9.90;;;22.30;34.00;;;;;;5074210;28;20481;-70
2021/04/03 10:55:08;;;;;;;13.47;9.67;;;22.20;32.90;;;;;;5074154;28;20476;-70
2021/04/03 10:57:35;;;;;;;17.50;9.33;;;22.30;33.00;;;;;;5074041;28;20895;-70
2021/04/03 11:00:02;;;;;;;22.63;10.03;;;22.50;32.40;;;;;;5074126;28;20449;-71
2021/04/03 11:02:28;;;;;;;22.20;9.67;;;22.50;32.20;;;;;;5074171;28;20449;-71
2021/04/03 11:04:54;;;;;;;14.37;9.20;;;22.70;31.90;;;;;;5074039;28;20468;-71
2021/04/03 11:07:21;;;;;;;22.53;8.80;;;23.00;32.10;;;;;;5073809;28;20471;-71
2021/04/03 11:09:48;;;;;;;13.63;6.73;;;23.40;31.00;;;;;;5073998;28;20523;-71
2021/04/03 11:12:15;;;;;;;20.90;8.23;;;23.90;31.00;;;;;;5073872;28;20471;-71
2021/04/03 11:14:41;;;;;;;19.60;8.60;;;24.10;29.80;;;;;;5073889;28;20465;-71
2021/04/03 11:17:08;;;;;;;15.20;8.07;;;23.70;29.60;;;;;;5073903;28;20448;-71
2021/04/03 11:19:34;;;;;;;15.80;8.13;;;23.40;30.60;;;;;;5073558;28;20946;-70
2021/04/03 11:22:00;;;;;;;16.07;8.20;;;22.80;30.90;;;;;;5073784;28;20452;-71
2021/04/03 11:24:27;;;;;;;15.43;9.27;;;22.00;31.80;;;;;;5072981;28;20926;-71
2021/04/03 11:26:54;;;;;;;15.93;8.73;;;21.90;33.60;;;;;;5074632;28;20444;-70
2021/04/03 11:29:25;;;;;;;23.57;11.33;;;22.30;33.70;;;;;;5073850;28;20934;-71
2021/04/03 11:31:51;;;;;;;13.17;10.10;;;22.80;31.90;;;;;;5074867;28;20425;-71
2021/04/03 11:34:17;;;;;;;12.70;8.63;;;23.20;31.60;;;;;;5073534;28;20900;-70
2021/04/03 11:36:43;;;;;;;19.70;12.57;;;23.40;30.60;;;;;;5073633;28;20440;-70
2021/04/03 11:39:10;;;;;;;18.97;13.47;;;23.70;30.80;;;;;;5074430;28;20448;-71
2021/04/03 11:41:36;;;;;;;15.93;11.80;;;24.00;28.60;;;;;;5073556;28;20513;-71
2021/04/03 11:44:04;;;;;;;14.40;11.33;;;24.10;29.20;;;;;;5073556;28;20440;-71
2021/04/03 11:46:30;;;;;;;18.80;9.47;;;24.50;29.30;;;;;;5073426;28;20476;-71
2021/04/03 11:48:57;;;;;;;17.20;9.20;;;25.10;28.90;;;;;;5073425;28;20470;-71
2021/04/03 11:51:23;;;;;;;19.70;10.57;;;24.80;28.40;;;;;;5073172;28;20987;-71
2021/04/03 11:53:50;;;;;;;14.63;8.93;;;23.70;29.30;;;;;;5073014;28;21018;-70
2021/04/03 11:56:16;;;;;;;15.07;8.70;;;22.70;31.30;;;;;;5072950;28;21005;-71
2021/04/03 11:58:43;;;;;;;17.07;10.47;;;21.90;33.00;;;;;;5073416;28;20444;-70
2021/04/03 12:01:10;;;;;;;15.23;8.30;;;21.60;33.60;;;;;;5073070;28;20436;-71
2021/04/03 12:03:36;;;;;;;19.77;8.23;;;21.90;33.70;;;;;;5073371;28;20444;-71
2021/04/03 12:06:03;;;;;;;24.13;9.00;;;22.30;32.30;;;;;;5074049;28;20472;-70
2021/04/03 12:08:29;;;;;;;10.10;7.70;;;23.20;31.40;;;;;;5073076;28;20456;-71
2021/04/03 12:10:55;;;;;;;16.40;8.70;;;24.30;30.00;;;;;;5073351;28;20425;-71
2021/04/03 12:13:21;;;;;;;13.23;8.10;;;25.10;28.90;;;;;;5073229;28;20488;-71
2021/04/03 12:15:47;;;;;;;21.83;8.97;;;26.00;27.40;;;;;;5072866;28;21001;-71
2021/04/03 12:18:14;;;;;;;18.47;9.07;;;26.50;27.00;;;;;;5073230;28;20487;-71
2021/04/03 12:20:41;;;;;;;15.27;9.77;;;26.50;26.30;;;;;;5073193;28;20445;-71
2021/04/03 12:23:07;;;;;;;14.63;9.70;;;25.90;27.00;;;;;;5073154;28;20441;-71
2021/04/03 12:25:33;;;;;;;11.67;8.80;;;25.40;27.20;;;;;;5073078;28;20460;-71
2021/04/03 12:27:59;;;;;;;14.27;7.73;;;25.40;26.60;;;;;;5073545;28;20456;-71
2021/04/03 12:30:25;;;;;;;14.90;8.20;;;25.90;27.10;;;;;;5073109;28;20444;-71
2021/04/03 12:32:52;;;;;;;12.03;7.53;;;26.60;26.60;;;;;;5073002;28;20468;-71
2021/04/03 12:35:19;;;;;;;17.70;7.90;;;27.00;26.00;;;;;;5073802;28;20472;-71
2021/04/03 12:37:45;;;;;;;45.50;12.37;;;27.00;25.30;;;;;;5076667;28;20444;-71
2021/04/03 12:40:12;;;;;;;33.07;11.10;;;26.40;26.20;;;;;;5076843;28;20451;-71
2021/04/03 12:42:39;;;;;;;23.53;9.77;;;25.60;26.60;;;;;;5076874;28;20444;-71
2021/04/03 12:45:07;;;;;;;11.40;8.77;;;24.90;27.30;;;;;;5076768;28;20465;-71
2021/04/03 12:47:33;;;;;;;17.17;9.33;;;25.10;27.10;;;;;;5076454;28;20940;-72